Time,TemperatureF,DewpointF,PressureIn,WindDirection,WindDirectionDegrees,WindSpeedMPH,WindSpeedGustMPH,Humidity,HourlyPrecipIn,Conditions,Clouds,dailyrainin,SolarRadiationWatts/m^2,SoftwareType,DateUTC
2013-05-14 00:00:00,59.4,47.2,30.10,ESE,117,0.0,3.0,64,0.00,CLR,,0.00,0.0,WeatherDisplay:10.37,2013-05-14 05:00:00,
2013-05-14 00:10:00,59.3,47.1,30.09,ESE,116,1.0,2.0,64,0.00,CLR,,0.00,0.0,WeatherDisplay:10.37,2013-05-14 05:10:00,
2013-05-14 00:20:00,58.8,47.5,30.09,ESE,111,0.0,1.0,66,0.00,CLR,,0.00,0.0,WeatherDisplay:10.37,2013-05-14 05:20:00,
2013-05-14 00:30:00,58.8,47.1,30.09,SE,138,0.0,1.0,65,0.00,CLR,,0.00,0.0,WeatherDisplay:10.37,2013-05-14 05:30:00,
2013-05-14 00:40:00,59.0,47.2,30.08,SE,138,1.0,3.0,65,0.00,CLR,,0.00,0.0,WeatherDisplay:10.37,2013-05-14 05:40:00,
2013-05-14 00:50:00,58.9,47.6,30.08,SE,135,1.0,3.0,66,0.00,CLR,,0.00,0.0,WeatherDisplay:10.37,2013-05-14 05:50:00,
2013-05-14 01:00:00,58.9,47.5,30.08,SE,138,0.0,3.0,66,0.00,CLR,,0.00,0.0,WeatherDisplay:10.37,2013-05-14 06:00:00,
2013-05-14 01:10:00,58.7,47.8,30.08,SE,126,0.0,2.0,67,0.00,CLR,,0.00,0.0,WeatherDisplay:10.37,2013-05-14 06:10:00,
2013-05-14 01:20:00,58.4,47.9,30.07,SE,135,1.0,1.0,68,0.00,CLR,,0.00,0.0,WeatherDisplay:10.37,2013-05-14 06:20:00,
2013-05-14 01:30:00,58.3,48.2,30.07,SE,144,0.0,2.0,69,0.00,CLR,,0.00,0.0,WeatherDisplay:10.37,2013-05-14 06:30:00,
2013-05-14 01:40:00,58.2,48.1,30.06,SE,144,1.0,2.0,69,0.00,CLR,,0.00,0.0,WeatherDisplay:10.37,2013-05-14 06:40:00,
2013-05-14 01:50:00,58.2,48.5,30.06,SE,140,1.0,2.0,70,0.00,CLR,,0.00,0.0,WeatherDisplay:10.37,2013-05-14 06:50:00,
2013-05-14 02:00:00,58.2,48.8,30.05,SE,140,1.0,2.0,71,0.00,CLR,,0.00,0.0,WeatherDisplay:10.37,2013-05-14 07:00:00,
2013-05-14 02:10:00,58.1,48.7,30.05,SE,144,1.0,2.0,71,0.00,CLR,,0.00,0.0,WeatherDisplay:10.37,2013-05-14 07:10:00,
2013-05-14 02:20:00,58.0,49.0,30.05,SE,139,0.0,2.0,72,0.00,CLR,,0.00,0.0,WeatherDisplay:10.37,2013-05-14 07:20:00,
2013-05-14 02:30:00,57.9,49.3,30.05,SE,137,0.0,2.0,73,0.00,CLR,,0.00,0.0,WeatherDisplay:10.37,2013-05-14 07:30:00,
2013-05-14 02:40:00,57.6,49.4,30.05,SE,140,1.0,2.0,74,0.00,CLR,,0.00,0.0,WeatherDisplay:10.37,2013-05-14 07:40:00,
2013-05-14 02:50:00,57.5,49.3,30.04,SE,140,0.0,2.0,74,0.00,CLR,,0.00,0.0,WeatherDisplay:10.37,2013-05-14 07:50:00,
2013-05-14 03:00:00,57.3,49.4,30.04,SE,142,0.0,1.0,75,0.00,CLR,,0.00,0.0,WeatherDisplay:10.37,2013-05-14 08:00:00,
2013-05-14 03:10:00,57.2,49.7,30.04,SE,143,1.0,2.0,76,0.00,CLR,,0.00,0.0,WeatherDisplay:10.37,2013-05-14 08:10:00,
2013-05-14 03:20:00,57.2,49.7,30.04,SE,145,1.0,3.0,76,0.00,CLR,,0.00,0.0,WeatherDisplay:10.37,2013-05-14 08:20:00,
2013-05-14 03:30:00,57.2,49.7,30.03,SSE,163,0.0,4.0,76,0.00,CLR,,0.00,0.0,WeatherDisplay:10.37,2013-05-14 08:30:00,
2013-05-14 03:40:00,57.4,49.9,30.03,SSE,151,2.0,4.0,76,0.00,CLR,,0.00,0.0,WeatherDisplay:10.37,2013-05-14 08:40:00,
2013-05-14 03:50:00,57.2,50.1,30.02,SSE,164,1.0,4.0,77,0.00,CLR,,0.00,0.0,WeatherDisplay:10.37,2013-05-14 08:50:00,
2013-05-14 04:00:00,57.0,50.2,30.02,SE,139,0.0,3.0,78,0.00,CLR,,0.00,0.0,WeatherDisplay:10.37,2013-05-14 09:00:00,
2013-05-14 04:10:00,56.7,50.3,30.02,SE,140,1.0,2.0,79,0.00,CLR,,0.00,0.0,WeatherDisplay:10.37,2013-05-14 09:10:00,
2013-05-14 04:20:00,56.7,50.3,30.02,SSE,154,1.0,3.0,79,0.00,CLR,,0.00,0.0,WeatherDisplay:10.37,2013-05-14 09:20:00,
2013-05-14 04:30:00,56.7,50.6,30.02,SSE,167,1.0,4.0,80,0.00,CLR,,0.00,0.0,WeatherDisplay:10.37,2013-05-14 09:30:00,
2013-05-14 04:40:00,56.7,50.6,30.02,South,179,1.0,3.0,80,0.00,CLR,,0.00,0.0,WeatherDisplay:10.37,2013-05-14 09:40:00,
2013-05-14 04:50:00,57.1,50.6,30.02,South,179,1.0,3.0,79,0.00,CLR,,0.00,0.0,WeatherDisplay:10.37,2013-05-14 09:50:00,
2013-05-14 05:00:00,57.4,50.9,30.02,South,179,1.0,4.0,79,0.00,CLR,,0.00,0.0,WeatherDisplay:10.37,2013-05-14 10:00:00,
2013-05-14 05:10:00,57.2,50.7,30.02,South,175,1.0,3.0,79,0.00,CLR,,0.00,0.0,WeatherDisplay:10.37,2013-05-14 10:10:00,
2013-05-14 05:20:00,57.2,51.1,30.02,SSE,153,1.0,3.0,80,0.00,CLR,,0.00,0.0,WeatherDisplay:10.37,2013-05-14 10:20:00,
2013-05-14 05:30:00,57.4,50.9,30.02,SE,146,1.0,3.0,79,0.00,CLR,,0.00,0.0,WeatherDisplay:10.37,2013-05-14 10:30:00,
2013-05-14 05:40:00,57.4,51.3,30.03,South,169,1.0,3.0,80,0.00,CLR,,0.00,0.0,WeatherDisplay:10.37,2013-05-14 10:40:00,
2013-05-14 05:50:00,57.4,51.3,30.03,SE,130,1.0,2.0,80,0.00,CLR,,0.00,0.0,WeatherDisplay:10.37,2013-05-14 10:50:00,
2013-05-14 06:00:00,57.4,51.3,30.03,SE,141,0.0,2.0,80,0.00,CLR,,0.00,0.0,WeatherDisplay:10.37,2013-05-14 11:00:00,
2013-05-14 06:10:00,57.4,51.3,30.04,SSW,199,0.0,2.0,80,0.00,CLR,,0.00,0.0,WeatherDisplay:10.37,2013-05-14 11:10:00,
2013-05-14 06:20:00,57.4,51.6,30.04,SE,143,1.0,1.0,81,0.00,CLR,,0.00,0.0,WeatherDisplay:10.37,2013-05-14 11:20:00,
2013-05-14 06:30:00,57.7,51.6,30.04,SE,144,1.0,3.0,80,0.00,CLR,,0.00,0.0,WeatherDisplay:10.37,2013-05-14 11:30:00,
2013-05-14 06:40:00,58.1,51.9,30.03,South,171,1.0,2.0,80,0.00,CLR,,0.00,0.0,WeatherDisplay:10.37,2013-05-14 11:40:00,
2013-05-14 06:50:00,59.1,52.6,30.04,SSW,197,1.0,2.0,79,0.00,CLR,,0.00,0.0,WeatherDisplay:10.37,2013-05-14 11:50:00,
2013-05-14 07:00:00,59.9,52.7,30.04,SSW,198,2.0,5.0,77,0.00,CLR,,0.00,0.0,WeatherDisplay:10.37,2013-05-14 12:00:00,
2013-05-14 07:10:00,60.6,53.4,30.04,SSW,197,2.0,4.0,77,0.00,CLR,,0.00,0.0,WeatherDisplay:10.37,2013-05-14 12:10:00,
2013-05-14 07:20:00,61.5,53.8,30.04,SSW,194,1.0,4.0,76,0.00,CLR,,0.00,0.0,WeatherDisplay:10.37,2013-05-14 12:20:00,
2013-05-14 07:30:00,62.3,54.3,30.04,SSW,199,1.0,4.0,75,0.00,CLR,,0.00,0.0,WeatherDisplay:10.37,2013-05-14 12:30:00,
2013-05-14 07:40:00,63.3,54.9,30.04,SSW,192,1.0,6.0,74,0.00,CLR,,0.00,0.0,WeatherDisplay:10.37,2013-05-14 12:40:00,
2013-05-14 07:50:00,64.2,55.4,30.04,SSW,206,2.0,5.0,73,0.00,CLR,,0.00,0.0,WeatherDisplay:10.37,2013-05-14 12:50:00,
2013-05-14 08:00:00,64.9,56.1,30.04,SSW,208,1.0,9.0,73,0.00,CLR,,0.00,0.0,WeatherDisplay:10.37,2013-05-14 13:00:00,
2013-05-14 08:10:00,65.8,56.1,30.04,SSW,208,2.0,5.0,71,0.00,CLR,,0.00,0.0,WeatherDisplay:10.37,2013-05-14 13:10:00,
2013-05-14 08:20:00,66.7,56.6,30.04,SSW,207,1.0,5.0,70,0.00,CLR,,0.00,0.0,WeatherDisplay:10.37,2013-05-14 13:20:00,
2013-05-14 08:30:00,67.5,57.0,30.03,SSW,196,3.0,9.0,69,0.00,CLR,,0.00,0.0,WeatherDisplay:10.37,2013-05-14 13:30:00,
2013-05-14 08:40:00,68.3,56.5,30.03,SSW,208,3.0,9.0,66,0.00,CLR,,0.00,0.0,WeatherDisplay:10.37,2013-05-14 13:40:00,
2013-05-14 08:50:00,69.2,57.4,30.03,SSW,212,2.0,6.0,66,0.00,CLR,,0.00,0.0,WeatherDisplay:10.37,2013-05-14 13:50:00,
2013-05-14 09:00:00,69.8,57.1,30.03,SW,214,5.0,8.0,64,0.00,CLR,,0.00,0.0,WeatherDisplay:10.37,2013-05-14 14:00:00,
2013-05-14 09:10:00,70.6,57.8,30.03,SSW,211,3.0,8.0,64,0.00,CLR,,0.00,0.0,WeatherDisplay:10.37,2013-05-14 14:10:00,
2013-05-14 09:20:00,71.5,58.2,30.03,SSW,210,3.0,9.0,63,0.00,CLR,,0.00,0.0,WeatherDisplay:10.37,2013-05-14 14:20:00,
2013-05-14 09:30:00,72.3,58.6,30.03,SW,218,5.0,8.0,62,0.00,CLR,,0.00,0.0,WeatherDisplay:10.37,2013-05-14 14:30:00,
2013-05-14 09:40:00,73.1,57.9,30.03,SW,216,7.0,12.0,59,0.00,CLR,,0.00,0.0,WeatherDisplay:10.37,2013-05-14 14:40:00,
2013-05-14 09:50:00,73.7,58.5,30.02,SSW,212,5.0,12.0,59,0.00,CLR,,0.00,0.0,WeatherDisplay:10.37,2013-05-14 14:50:00,
2013-05-14 10:00:00,74.6,57.9,30.03,SW,223,6.0,12.0,56,0.00,CLR,,0.00,0.0,WeatherDisplay:10.37,2013-05-14 15:00:00,
2013-05-14 10:10:00,75.3,58.0,30.02,SW,218,6.0,10.0,55,0.00,CLR,,0.00,0.0,WeatherDisplay:10.37,2013-05-14 15:10:00,
2013-05-14 10:20:00,76.2,58.9,30.02,SW,219,5.0,12.0,55,0.00,CLR,,0.00,0.0,WeatherDisplay:10.37,2013-05-14 15:20:00,
2013-05-14 10:30:00,76.9,59.0,30.02,SW,219,5.0,12.0,54,0.00,CLR,,0.00,0.0,WeatherDisplay:10.37,2013-05-14 15:30:00,
2013-05-14 10:40:00,77.4,59.5,30.02,SW,216,5.0,10.0,54,0.00,CLR,,0.00,0.0,WeatherDisplay:10.37,2013-05-14 15:40:00,
2013-05-14 10:50:00,77.9,58.9,30.02,SSW,209,6.0,10.0,52,0.00,CLR,,0.00,0.0,WeatherDisplay:10.37,2013-05-14 15:50:00,
2013-05-14 11:00:00,78.5,60.5,30.02,SSW,203,5.0,12.0,54,0.00,CLR,,0.00,0.0,WeatherDisplay:10.37,2013-05-14 16:00:00,
2013-05-14 11:10:00,78.7,58.5,30.02,SW,224,6.0,13.0,50,0.00,CLR,,0.00,0.0,WeatherDisplay:10.37,2013-05-14 16:10:00,
2013-05-14 11:20:00,79.4,58.0,30.02,SW,217,6.0,12.0,48,0.00,CLR,,0.00,0.0,WeatherDisplay:10.37,2013-05-14 16:20:00,
2013-05-14 11:30:00,79.7,57.7,30.02,SW,217,8.0,13.0,47,0.00,CLR,,0.00,0.0,WeatherDisplay:10.37,2013-05-14 16:30:00,
2013-05-14 11:40:00,80.1,58.6,30.01,SW,216,7.0,12.0,48,0.00,CLR,,0.00,0.0,WeatherDisplay:10.37,2013-05-14 16:40:00,
2013-05-14 11:50:00,80.4,60.1,30.01,SSW,210,8.0,12.0,50,0.00,CLR,,0.00,0.0,WeatherDisplay:10.37,2013-05-14 16:50:00,
2013-05-14 12:00:00,81.2,60.2,30.01,SW,220,5.0,10.0,49,0.00,CLR,,0.00,0.0,WeatherDisplay:10.37,2013-05-14 17:00:00,
2013-05-14 12:10:00,81.7,60.1,30.00,SSW,211,5.0,14.0,48,0.00,CLR,,0.00,0.0,WeatherDisplay:10.37,2013-05-14 17:10:00,
2013-05-14 12:20:00,81.4,59.9,30.00,SW,216,5.0,12.0,48,0.00,CLR,,0.00,0.0,WeatherDisplay:10.37,2013-05-14 17:20:00,
2013-05-14 12:30:00,82.0,59.8,30.00,SSW,206,7.0,12.0,47,0.00,CLR,,0.00,0.0,WeatherDisplay:10.37,2013-05-14 17:30:00,
2013-05-14 12:40:00,82.0,60.4,30.00,SW,215,6.0,13.0,48,0.00,CLR,,0.00,0.0,WeatherDisplay:10.37,2013-05-14 17:40:00,
2013-05-14 12:50:00,82.5,60.2,29.99,SW,218,5.0,12.0,47,0.00,CLR,,0.00,0.0,WeatherDisplay:10.37,2013-05-14 17:50:00,
2013-05-14 13:00:00,82.5,59.6,29.99,SW,219,5.0,14.0,46,0.00,CLR,,0.00,0.0,WeatherDisplay:10.37,2013-05-14 18:00:00,
2013-05-14 13:10:00,83.0,60.1,29.99,SSW,208,6.0,12.0,46,0.00,CLR,,0.00,0.0,WeatherDisplay:10.37,2013-05-14 18:10:00,
2013-05-14 13:20:00,83.1,59.6,29.98,SW,217,6.0,13.0,45,0.00,CLR,,0.00,0.0,WeatherDisplay:10.37,2013-05-14 18:20:00,
2013-05-14 13:30:00,82.7,61.0,29.98,SW,217,5.0,14.0,48,0.00,CLR,,0.00,0.0,WeatherDisplay:10.37,2013-05-14 18:30:00,
2013-05-14 13:40:00,83.0,60.7,29.97,SW,216,7.0,12.0,47,0.00,CLR,,0.00,0.0,WeatherDisplay:10.37,2013-05-14 18:40:00,
2013-05-14 13:50:00,82.9,61.2,29.97,SW,216,7.0,12.0,48,0.00,CLR,,0.00,0.0,WeatherDisplay:10.37,2013-05-14 18:50:00,
2013-05-14 14:00:00,82.9,60.6,29.97,SW,217,8.0,14.0,47,0.00,CLR,,0.00,0.0,WeatherDisplay:10.37,2013-05-14 19:00:00,
2013-05-14 14:10:00,82.8,60.5,29.97,SSW,209,7.0,13.0,47,0.00,CLR,,0.00,0.0,WeatherDisplay:10.37,2013-05-14 19:10:00,
2013-05-14 14:20:00,83.0,60.7,29.96,SW,214,6.0,13.0,47,0.00,CLR,,0.00,0.0,WeatherDisplay:10.37,2013-05-14 19:20:00,
2013-05-14 14:30:00,83.2,59.0,29.96,SSW,211,9.0,16.0,44,0.00,CLR,,0.00,0.0,WeatherDisplay:10.37,2013-05-14 19:30:00,
2013-05-14 14:40:00,83.3,61.0,29.95,SW,217,6.0,15.0,47,0.00,CLR,,0.00,0.0,WeatherDisplay:10.37,2013-05-14 19:40:00,
2013-05-14 14:50:00,83.4,60.5,29.95,SSW,207,7.0,15.0,46,0.00,CLR,,0.00,0.0,WeatherDisplay:10.37,2013-05-14 19:50:00,
2013-05-14 15:00:00,83.5,59.9,29.95,SSW,208,7.0,13.0,45,0.00,CLR,,0.00,0.0,WeatherDisplay:10.37,2013-05-14 20:00:00,
2013-05-14 15:10:00,83.8,61.4,29.95,SSW,211,7.0,13.0,47,0.00,CLR,,0.00,0.0,WeatherDisplay:10.37,2013-05-14 20:10:00,
2013-05-14 15:20:00,84.3,61.9,29.94,SSW,205,7.0,16.0,47,0.00,CLR,,0.00,0.0,WeatherDisplay:10.37,2013-05-14 20:20:00,
2013-05-14 15:30:00,84.6,62.1,29.94,SSW,212,7.0,15.0,47,0.00,CLR,,0.00,0.0,WeatherDisplay:10.37,2013-05-14 20:30:00,
2013-05-14 15:40:00,84.8,61.7,29.94,SW,214,7.0,15.0,46,0.00,CLR,,0.00,0.0,WeatherDisplay:10.37,2013-05-14 20:40:00,
2013-05-14 15:50:00,85.2,62.1,29.94,SW,218,6.0,12.0,46,0.00,CLR,,0.00,0.0,WeatherDisplay:10.37,2013-05-14 20:50:00,
2013-05-14 16:00:00,85.1,62.0,29.94,SSW,211,7.0,12.0,46,0.00,CLR,,0.00,0.0,WeatherDisplay:10.37,2013-05-14 21:00:00,
2013-05-14 16:10:00,85.0,61.3,29.94,SSW,209,8.0,14.0,45,0.00,CLR,,0.00,0.0,WeatherDisplay:10.37,2013-05-14 21:10:00,
2013-05-14 16:20:00,85.1,62.6,29.94,SW,217,8.0,14.0,47,0.00,CLR,,0.00,0.0,WeatherDisplay:10.37,2013-05-14 21:20:00,
2013-05-14 16:30:00,84.8,62.9,29.94,SSW,207,6.0,15.0,48,0.00,CLR,,0.00,0.0,WeatherDisplay:10.37,2013-05-14 21:30:00,
2013-05-14 16:40:00,84.7,62.2,29.94,SSW,213,7.0,16.0,47,0.00,CLR,,0.00,0.0,WeatherDisplay:10.37,2013-05-14 21:40:00,
2013-05-14 16:50:00,84.6,61.5,29.94,SW,223,9.0,15.0,46,0.00,CLR,,0.00,0.0,WeatherDisplay:10.37,2013-05-14 21:50:00,
2013-05-14 17:00:00,84.6,62.7,29.94,SSW,205,7.0,17.0,48,0.00,CLR,,0.00,0.0,WeatherDisplay:10.37,2013-05-14 22:00:00,
2013-05-14 17:10:00,84.5,62.1,29.94,SW,215,7.0,15.0,47,0.00,CLR,,0.00,0.0,WeatherDisplay:10.37,2013-05-14 22:10:00,
2013-05-14 17:20:00,84.4,62.0,29.94,SW,217,6.0,17.0,47,0.00,CLR,,0.00,0.0,WeatherDisplay:10.37,2013-05-14 22:20:00,
2013-05-14 17:30:00,84.2,61.2,29.93,SSW,206,9.0,18.0,46,0.00,CLR,,0.00,0.0,WeatherDisplay:10.37,2013-05-14 22:30:00,
2013-05-14 17:40:00,84.1,61.1,29.93,SW,215,10.0,17.0,46,0.00,CLR,,0.00,0.0,WeatherDisplay:10.37,2013-05-14 22:40:00,
2013-05-14 17:50:00,83.9,61.5,29.93,SSW,211,8.0,14.0,47,0.00,CLR,,0.00,0.0,WeatherDisplay:10.37,2013-05-14 22:50:00,
2013-05-14 18:00:00,83.9,60.9,29.93,SSW,210,10.0,17.0,46,0.00,CLR,,0.00,0.0,WeatherDisplay:10.37,2013-05-14 23:00:00,
2013-05-14 18:10:00,83.7,61.3,29.92,SSW,212,7.0,15.0,47,0.00,CLR,,0.00,0.0,WeatherDisplay:10.37,2013-05-14 23:10:00,
2013-05-14 18:20:00,83.5,61.1,29.92,SW,216,7.0,16.0,47,0.00,CLR,,0.00,0.0,WeatherDisplay:10.37,2013-05-14 23:20:00,
2013-05-14 18:30:00,83.3,61.5,29.92,SW,215,7.0,14.0,48,0.00,CLR,,0.00,0.0,WeatherDisplay:10.37,2013-05-14 23:30:00,
2013-05-14 18:40:00,83.0,61.3,29.92,SW,217,6.0,15.0,48,0.00,CLR,,0.00,0.0,WeatherDisplay:10.37,2013-05-14 23:40:00,
2013-05-14 18:50:00,82.6,60.9,29.92,SW,216,6.0,12.0,48,0.00,CLR,,0.00,0.0,WeatherDisplay:10.37,2013-05-14 23:50:00,
2013-05-14 19:00:00,82.2,61.2,29.92,SSW,210,7.0,12.0,49,0.00,CLR,,0.00,0.0,WeatherDisplay:10.37,2013-05-15 00:00:00,
2013-05-14 19:10:00,81.9,61.4,29.92,SW,218,6.0,13.0,50,0.00,CLR,,0.00,0.0,WeatherDisplay:10.37,2013-05-15 00:10:00,
2013-05-14 19:20:00,81.4,61.5,29.92,SSW,212,5.0,9.0,51,0.00,CLR,,0.00,0.0,WeatherDisplay:10.37,2013-05-15 00:20:00,
2013-05-14 19:30:00,80.8,61.0,29.92,SW,218,6.0,14.0,51,0.00,CLR,,0.00,0.0,WeatherDisplay:10.37,2013-05-15 00:30:00,
2013-05-14 19:40:00,80.2,61.0,29.92,SW,214,5.0,10.0,52,0.00,CLR,,0.00,0.0,WeatherDisplay:10.37,2013-05-15 00:40:00,
2013-05-14 19:50:00,79.3,61.2,29.92,SW,215,3.0,7.0,54,0.00,CLR,,0.00,0.0,WeatherDisplay:10.37,2013-05-15 00:50:00,
2013-05-14 20:00:00,78.5,61.0,29.92,SW,216,3.0,7.0,55,0.00,CLR,,0.00,0.0,WeatherDisplay:10.37,2013-05-15 01:00:00,
2013-05-14 20:10:00,77.8,61.4,29.93,SW,215,1.0,5.0,57,0.00,CLR,,0.00,0.0,WeatherDisplay:10.37,2013-05-15 01:10:00,
2013-05-14 20:20:00,76.6,61.2,29.92,SSW,200,1.0,6.0,59,0.00,CLR,,0.00,0.0,WeatherDisplay:10.37,2013-05-15 01:20:00,
2013-05-14 20:30:00,76.1,61.2,29.93,SSW,195,1.0,4.0,60,0.00,CLR,,0.00,0.0,WeatherDisplay:10.37,2013-05-15 01:30:00,
2013-05-14 20:40:00,76.0,61.1,29.93,SSW,209,2.0,6.0,60,0.00,CLR,,0.00,0.0,WeatherDisplay:10.37,2013-05-15 01:40:00,
2013-05-14 20:50:00,75.5,61.1,29.93,SSW,198,2.0,5.0,61,0.00,CLR,,0.00,0.0,WeatherDisplay:10.37,2013-05-15 01:50:00,
2013-05-14 21:00:00,75.0,61.1,29.93,South,186,0.0,5.0,62,0.00,CLR,,0.00,0.0,WeatherDisplay:10.37,2013-05-15 02:00:00,
2013-05-14 21:10:00,74.1,61.1,29.94,South,190,1.0,3.0,64,0.00,CLR,,0.00,0.0,WeatherDisplay:10.37,2013-05-15 02:10:00,
2013-05-14 21:20:00,73.3,60.8,29.94,South,177,1.0,3.0,65,0.00,CLR,,0.00,0.0,WeatherDisplay:10.37,2013-05-15 02:20:00,
2013-05-14 21:30:00,72.8,61.2,29.94,South,185,1.0,2.0,67,0.00,CLR,,0.00,0.0,WeatherDisplay:10.37,2013-05-15 02:30:00,
2013-05-14 21:40:00,72.4,60.8,29.95,SSW,195,1.0,4.0,67,0.00,CLR,,0.00,0.0,WeatherDisplay:10.37,2013-05-15 02:40:00,
2013-05-14 21:50:00,71.9,61.2,29.95,South,187,1.0,3.0,69,0.00,CLR,,0.00,0.0,WeatherDisplay:10.37,2013-05-15 02:50:00,
2013-05-14 22:00:00,71.5,61.2,29.95,South,188,1.0,3.0,70,0.00,CLR,,0.00,0.0,WeatherDisplay:10.37,2013-05-15 03:00:00,
2013-05-14 22:10:00,71.4,61.1,29.95,South,181,1.0,3.0,70,0.00,CLR,,0.00,0.0,WeatherDisplay:10.37,2013-05-15 03:10:00,
2013-05-14 22:20:00,71.2,61.3,29.95,South,188,1.0,4.0,71,0.00,CLR,,0.00,0.0,WeatherDisplay:10.37,2013-05-15 03:20:00,
2013-05-14 22:30:00,71.1,60.8,29.95,SSW,207,2.0,4.0,70,0.00,CLR,,0.00,0.0,WeatherDisplay:10.37,2013-05-15 03:30:00,
2013-05-14 22:40:00,71.4,60.7,29.95,SSW,201,1.0,4.0,69,0.00,CLR,,0.00,0.0,WeatherDisplay:10.37,2013-05-15 03:40:00,
2013-05-14 22:50:00,71.6,60.9,29.95,SSW,208,2.0,4.0,69,0.00,CLR,,0.00,0.0,WeatherDisplay:10.37,2013-05-15 03:50:00,
2013-05-14 23:00:00,71.4,60.3,29.95,SSW,212,2.0,4.0,68,0.00,CLR,,0.00,0.0,WeatherDisplay:10.37,2013-05-15 04:00:00,
2013-05-14 23:10:00,72.1,60.1,29.95,SW,215,2.0,5.0,66,0.00,CLR,,0.00,0.0,WeatherDisplay:10.37,2013-05-15 04:10:00,
2013-05-14 23:20:00,72.3,59.9,29.95,SW,214,2.0,6.0,65,0.00,CLR,,0.00,0.0,WeatherDisplay:10.37,2013-05-15 04:20:00,
2013-05-14 23:30:00,72.2,59.8,29.95,SW,217,2.0,4.0,65,0.00,CLR,,0.00,0.0,WeatherDisplay:10.37,2013-05-15 04:30:00,
2013-05-14 23:40:00,72.3,59.9,29.95,SW,221,1.0,5.0,65,0.00,CLR,,0.00,0.0,WeatherDisplay:10.37,2013-05-15 04:40:00,
2013-05-14 23:50:00,72.1,59.2,29.95,SW,222,3.0,5.0,64,0.00,CLR,,0.00,0.0,WeatherDisplay:10.37,2013-05-15 04:50:00,